Time;durP1;ratioP1;P1;durP2;ratioP2;P2;SDS_P1;SDS_P2;PMS_P1;PMS_P2;Temp;Humidity;BMP_temperature;BMP_pressure;BME280_temperature;BME280_humidity;BME280_pressure;Samples;Min_cycle;Max_cycle;Signal;HPM_P1;HPM_P2
2021/12/19 00:09:12;;;;;;;;;;;-2.70;99.90;;;;;;4391268;32;19978;-69
2021/12/19 00:11:38;;;;;;;;;;;-2.70;99.90;;;;;;4391649;32;19982;-69
2021/12/19 00:14:05;;;;;;;;;;;-2.80;99.90;;;;;;4382195;32;19970;-69
2021/12/19 00:16:32;;;;;;;;;;;-2.60;99.90;;;;;;4395728;32;20053;-70
2021/12/19 00:18:59;;;;;;;;;;;-2.70;99.90;;;;;;4391217;32;19978;-69
2021/12/19 00:21:28;;;;;;;;;;;-2.70;99.90;;;;;;4391686;32;19982;-68
2021/12/19 00:23:55;;;;;;;;;;;-2.60;99.90;;;;;;4378365;32;19992;-69
2021/12/19 00:26:21;;;;;;;;;;;-2.70;99.90;;;;;;4378000;32;20040;-70
2021/12/19 00:28:49;;;;;;;;;;;-2.70;99.90;;;;;;4365744;32;20001;-69
2021/12/19 00:31:15;;;;;;;;;;;-2.70;99.90;;;;;;4391144;32;20461;-69
2021/12/19 00:33:42;;;;;;;;;;;-2.70;99.90;;;;;;4392056;32;19988;-67
2021/12/19 00:36:08;;;;;;;;;;;-2.60;99.90;;;;;;4377899;32;20396;-68
2021/12/19 00:38:35;;;;;;;;;;;-2.70;99.90;;;;;;4392104;32;19984;-68
2021/12/19 00:41:03;;;;;;;;;;;-2.70;99.90;;;;;;4365286;32;19989;-69
2021/12/19 00:43:37;;;;;;;;;;;-2.70;99.90;;;;;;4378804;32;20013;-69
2021/12/19 00:46:09;;;;;;;;;;;-2.70;99.90;;;;;;4377651;32;19966;-68
2021/12/19 00:48:38;;;;;;;;;;;-2.90;99.90;;;;;;4390547;32;19997;-70
2021/12/19 00:51:05;;;;;;;;;;;-2.70;99.90;;;;;;4378618;32;19989;-70
2021/12/19 00:53:32;;;;;;;;;;;-2.80;99.90;;;;;;4390426;32;19969;-69
2021/12/19 00:55:58;;;;;;;;;;;-2.70;99.90;;;;;;4392038;32;20070;-70
2021/12/19 00:58:24;;;;;;;;;;;-2.60;99.90;;;;;;4392006;32;20475;-70
2021/12/19 01:00:51;;;;;;;;;;;-2.70;99.90;;;;;;4390341;32;19996;-69
2021/12/19 01:03:18;;;;;;;;;;;-2.80;99.90;;;;;;4390400;32;19982;-69
2021/12/19 01:05:45;;;;;;;;;;;-2.80;99.90;;;;;;4373832;32;20052;-71
2021/12/19 01:08:14;;;;;;;;;;;-2.70;99.90;;;;;;4397297;32;20395;-69
2021/12/19 01:10:42;;;;;;;;;;;-2.80;99.90;;;;;;4378222;32;20066;-68
2021/12/19 01:13:09;;;;;;;;;;;-2.80;99.90;;;;;;4365509;32;19965;-69
2021/12/19 01:15:35;;;;;;;;;;;-2.80;99.90;;;;;;4364792;32;20364;-70
2021/12/19 01:18:03;;;;;;;;;;;-2.90;99.90;;;;;;4391352;32;20054;-69
2021/12/19 01:20:30;;;;;;;;;;;-2.80;99.90;;;;;;4377505;32;19981;-68
2021/12/19 01:22:57;;;;;;;;;;;-2.90;99.90;;;;;;4365126;32;20444;-70
2021/12/19 01:25:23;;;;;;;;;;;-2.90;99.90;;;;;;4365373;32;20000;-70
2021/12/19 01:27:50;;;;;;;;;;;-2.90;99.90;;;;;;4390718;32;19981;-68
2021/12/19 01:30:16;;;;;;;;;;;-2.90;99.90;;;;;;4390251;32;20488;-69
2021/12/19 01:32:42;;;;;;;;;;;-2.90;99.90;;;;;;4390483;32;20347;-69
2021/12/19 01:35:10;;;;;;;;;;;-2.90;99.90;;;;;;4377923;32;20055;-69
2021/12/19 01:37:36;;;;;;;;;;;-2.90;99.90;;;;;;4378012;32;20004;-69
2021/12/19 01:40:07;;;;;;;;;;;-2.90;99.90;;;;;;4391571;32;19981;-70
2021/12/19 01:42:36;;;;;;;;;;;-2.90;99.90;;;;;;4377701;32;19985;-69
2021/12/19 01:45:06;;;;;;;;;;;-2.90;99.90;;;;;;4390014;32;19982;-68
2021/12/19 01:47:32;;;;;;;;;;;-2.80;99.90;;;;;;4377690;32;19966;-68
2021/12/19 01:49:58;;;;;;;;;;;-2.70;99.90;;;;;;4377203;32;20066;-69
2021/12/19 01:52:28;;;;;;;;;;;-2.90;99.90;;;;;;4377677;32;20036;-70
2021/12/19 01:54:55;;;;;;;;;;;-2.80;99.90;;;;;;4377744;32;19974;-68
2021/12/19 01:57:24;;;;;;;;;;;-2.80;99.90;;;;;;4390181;32;19989;-70
2021/12/19 01:59:51;;;;;;;;;;;-2.90;99.90;;;;;;4377608;32;19985;-69
2021/12/19 02:02:17;;;;;;;;;;;-2.80;99.90;;;;;;4376843;32;20452;-69
2021/12/19 02:04:44;;;;;;;;;;;-2.80;99.90;;;;;;4374397;32;20026;-69
2021/12/19 02:07:11;;;;;;;;;;;-2.90;99.90;;;;;;4376512;32;19986;-69
2021/12/19 02:09:39;;;;;;;;;;;-2.80;99.90;;;;;;4374823;32;19978;-69
2021/12/19 02:12:05;;;;;;;;;;;-2.80;99.90;;;;;;4389041;32;20078;-69
2021/12/19 02:14:31;;;;;;;;;;;-2.90;99.90;;;;;;4364971;32;19978;-69
2021/12/19 02:16:57;;;;;;;;;;;-2.90;99.90;;;;;;4377203;32;19982;-69
2021/12/19 02:19:24;;;;;;;;;;;-2.90;99.90;;;;;;4364744;32;20074;-69
2021/12/19 02:21:51;;;;;;;;;;;-2.90;99.90;;;;;;4390585;32;19985;-69
2021/12/19 02:24:17;;;;;;;;;;;-2.80;99.90;;;;;;4389985;32;20068;-70
2021/12/19 02:26:44;;;;;;;;;;;-2.80;99.90;;;;;;4378845;32;20086;-69
2021/12/19 02:29:11;;;;;;;;;;;-2.90;99.90;;;;;;4364702;32;20002;-68
2021/12/19 02:31:39;;;;;;;;;;;-2.80;99.90;;;;;;4377049;32;20456;-69
2021/12/19 02:34:12;;;;;;;;;;;-2.90;99.90;;;;;;4377370;32;20518;-69
2021/12/19 02:49:49;;;;;;;;;;;-2.80;99.90;;;;;;4376787;32;20001;-69
2021/12/19 02:52:17;;;;;;;;;;;-2.70;99.90;;;;;;4376820;32;19997;-68
2021/12/19 02:54:44;;;;;;;;;;;-2.80;99.90;;;;;;4376742;32;20004;-69
2021/12/19 02:57:10;;;;;;;;;;;-2.70;99.90;;;;;;4377187;32;19986;-69
2021/12/19 02:59:36;;;;;;;;;;;-2.50;99.90;;;;;;4376964;32;19989;-69
2021/12/19 03:02:03;;;;;;;;;;;-2.50;99.90;;;;;;4378281;32;19986;-69
2021/12/19 03:04:29;;;;;;;;;;;-2.40;99.90;;;;;;4361482;32;20043;-69
2021/12/19 03:06:55;;;;;;;;;;;-2.50;99.90;;;;;;4362715;32;20050;-69
2021/12/19 03:20:04;;;;;;;;;;;-2.50;99.90;;;;;;4363347;32;19970;-69
2021/12/19 03:22:31;;;;;;;;;;;-2.50;99.90;;;;;;4363014;32;20419;-70
2021/12/19 03:24:57;;;;;;;;;;;-2.50;99.90;;;;;;4374287;32;19987;-69
2021/12/19 03:27:23;;;;;;;;;;;-2.50;99.90;;;;;;4373833;32;19994;-70
2021/12/19 03:29:49;;;;;;;;;;;-2.40;99.90;;;;;;4361396;32;19986;-69
2021/12/19 03:32:15;;;;;;;;;;;-2.50;99.90;;;;;;4361732;32;19970;-69
2021/12/19 03:34:41;;;;;;;;;;;-2.40;99.90;;;;;;4363710;32;20071;-70
2021/12/19 03:37:08;;;;;;;;;;;-2.40;99.90;;;;;;4362300;32;19987;-69
2021/12/19 03:39:44;;;;;;;;;;;-2.40;99.90;;;;;;4362016;32;19993;-69
2021/12/19 03:42:12;;;;;;;;;;;-2.50;99.90;;;;;;4350628;32;19966;-69
2021/12/19 03:44:39;;;;;;;;;;;-2.50;99.90;;;;;;4362838;32;20014;-69
2021/12/19 03:47:05;;;;;;;;;;;-2.40;99.90;;;;;;4362620;32;19970;-69
2021/12/19 03:49:31;;;;;;;;;;;-2.50;99.90;;;;;;4362491;32;20001;-70
2021/12/19 03:51:58;;;;;;;;;;;-2.50;99.90;;;;;;4373702;32;19993;-70
2021/12/19 03:54:24;;;;;;;;;;;-2.40;99.90;;;;;;4374320;32;19981;-70
2021/12/19 03:56:50;;;;;;;;;;;-2.50;99.90;;;;;;4349124;32;19977;-68
2021/12/19 03:59:16;;;;;;;;;;;-2.50;99.90;;;;;;4361206;32;19981;-70
2021/12/19 04:01:47;;;;;;;;;;;-2.60;99.90;;;;;;4373674;32;20049;-70
2021/12/19 04:04:14;;;;;;;;;;;-2.50;99.90;;;;;;4353183;32;20415;-68
2021/12/19 04:06:40;;;;;;;;;;;-2.50;99.90;;;;;;4361721;32;19986;-70
2021/12/19 04:09:06;;;;;;;;;;;-2.50;99.90;;;;;;4360960;32;19974;-70
2021/12/19 04:11:32;;;;;;;;;;;-2.40;99.90;;;;;;4375066;32;19978;-69
2021/12/19 04:13:58;;;;;;;;;;;-2.30;99.90;;;;;;4370111;32;19981;-69
2021/12/19 04:16:24;;;;;;;;;;;-2.30;99.90;;;;;;4362563;32;20009;-69
2021/12/19 04:18:51;;;;;;;;;;;-2.40;99.90;;;;;;4373910;32;20389;-70
2021/12/19 04:21:17;;;;;;;;;;;-2.40;99.90;;;;;;4362385;32;20407;-70
2021/12/19 04:23:43;;;;;;;;;;;-2.50;99.90;;;;;;4362192;32;19982;-70
2021/12/19 04:26:09;;;;;;;;;;;-2.50;99.90;;;;;;4348740;32;19994;-70
2021/12/19 04:28:35;;;;;;;;;;;-2.60;99.90;;;;;;4360696;32;20376;-69
2021/12/19 04:31:03;;;;;;;;;;;-2.60;99.90;;;;;;4362208;32;19982;-69
2021/12/19 04:33:32;;;;;;;;;;;-2.60;99.90;;;;;;4360582;32;19978;-70
2021/12/19 04:36:01;;;;;;;;;;;-2.60;99.90;;;;;;4360446;32;19974;-69
2021/12/19 04:52:36;;;;;;;;;;;-2.70;99.90;;;;;;4360894;32;20126;-70
2021/12/19 05:00:21;;;;;;;;;;;-2.70;99.90;;;;;;4361686;32;19986;-69
2021/12/19 05:02:59;;;;;;;;;;;-2.70;99.90;;;;;;4370903;32;19978;-70
2021/12/19 05:05:50;;;;;;;;;;;-2.70;99.90;;;;;;4361544;32;20459;-69
2021/12/19 05:16:28;;;;;;;;;;;-2.60;99.90;;;;;;4363893;32;19990;-69
2021/12/19 05:19:02;;;;;;;;;;;-2.60;99.90;;;;;;4362790;32;19997;-70
2021/12/19 05:21:29;;;;;;;;;;;-2.60;99.90;;;;;;4360661;32;19975;-69
2021/12/19 05:26:22;;;;;;;;;;;-2.50;99.90;;;;;;4347669;32;20470;-69
2021/12/19 05:28:48;;;;;;;;;;;-2.50;99.90;;;;;;4361508;32;20013;-69
2021/12/19 05:31:16;;;;;;;;;;;-2.50;99.90;;;;;;4362167;32;20360;-69
2021/12/19 05:33:42;;;;;;;;;;;-2.40;99.90;;;;;;4361902;32;20012;-69
2021/12/19 05:44:11;;;;;;;;;;;-2.30;99.90;;;;;;4361574;32;19979;-70
2021/12/19 05:47:07;;;;;;;;;;;-2.30;99.90;;;;;;4359829;32;20395;-70
2021/12/19 05:49:34;;;;;;;;;;;-2.20;99.90;;;;;;4363118;32;20077;-68
2021/12/19 05:52:01;;;;;;;;;;;-2.10;99.90;;;;;;4350576;32;19987;-70
2021/12/19 05:54:27;;;;;;;;;;;-2.00;99.90;;;;;;4364347;32;20360;-70
2021/12/19 05:56:53;;;;;;;;;;;-2.00;99.90;;;;;;4350287;32;20052;-69
2021/12/19 05:59:19;;;;;;;;;;;-1.90;99.90;;;;;;4364304;32;19981;-68
2021/12/19 06:01:46;;;;;;;;;;;-1.80;99.90;;;;;;4362545;32;19967;-70
2021/12/19 06:04:13;;;;;;;;;;;-1.70;99.90;;;;;;4355178;32;20047;-70
2021/12/19 06:06:40;;;;;;;;;;;-1.80;99.90;;;;;;4362650;32;19982;-69
2021/12/19 06:09:06;;;;;;;;;;;-1.80;99.90;;;;;;4362504;32;20403;-70
2021/12/19 06:11:33;;;;;;;;;;;-1.70;99.90;;;;;;4364152;32;19995;-70
2021/12/19 06:13:59;;;;;;;;;;;-1.70;99.90;;;;;;4362403;32;20066;-70
2021/12/19 06:16:25;;;;;;;;;;;-1.70;99.90;;;;;;4363998;32;19974;-69
2021/12/19 06:18:51;;;;;;;;;;;-1.80;99.90;;;;;;4350148;32;20021;-70
2021/12/19 06:21:17;;;;;;;;;;;-1.80;99.90;;;;;;4350104;32;20057;-68
2021/12/19 06:23:44;;;;;;;;;;;-1.90;99.90;;;;;;4374913;32;19974;-70
2021/12/19 06:26:11;;;;;;;;;;;-1.90;99.90;;;;;;4349960;32;19981;-70
2021/12/19 06:28:38;;;;;;;;;;;-2.00;99.90;;;;;;4363738;32;19978;-69
2021/12/19 06:31:05;;;;;;;;;;;-1.90;99.90;;;;;;4362635;32;19982;-70
2021/12/19 06:33:31;;;;;;;;;;;-2.00;99.90;;;;;;4375391;32;19986;-69
2021/12/19 06:35:57;;;;;;;;;;;-1.90;99.90;;;;;;4362245;32;20095;-69
2021/12/19 06:38:23;;;;;;;;;;;-1.80;99.90;;;;;;4362416;32;19993;-70
2021/12/19 06:40:49;;;;;;;;;;;-1.80;99.90;;;;;;4362678;32;20075;-69
2021/12/19 06:43:16;;;;;;;;;;;-2.00;99.90;;;;;;4374517;32;20473;-68
2021/12/19 06:45:42;;;;;;;;;;;-1.90;99.90;;;;;;4361772;32;20382;-69
2021/12/19 06:48:08;;;;;;;;;;;-2.00;99.90;;;;;;4362321;32;20044;-67
2021/12/19 06:50:35;;;;;;;;;;;-2.00;99.90;;;;;;4361424;32;20370;-67
2021/12/19 06:53:01;;;;;;;;;;;-2.00;99.90;;;;;;4363790;32;19977;-69
2021/12/19 06:55:27;;;;;;;;;;;-2.00;99.90;;;;;;4349691;32;20427;-67
2021/12/19 06:57:53;;;;;;;;;;;-2.00;99.90;;;;;;4369509;32;19986;-67
2021/12/19 07:00:23;;;;;;;;;;;-1.90;99.90;;;;;;4371487;32;19993;-67
2021/12/19 07:02:49;;;;;;;;;;;-1.90;99.90;;;;;;4362408;32;19990;-68
2021/12/19 07:05:15;;;;;;;;;;;-1.90;99.90;;;;;;4361102;32;19978;-67
2021/12/19 07:07:41;;;;;;;;;;;-1.90;99.90;;;;;;4363801;32;20004;-67
2021/12/19 07:10:09;;;;;;;;;;;-1.90;99.90;;;;;;4363090;32;20087;-66
2021/12/19 07:12:35;;;;;;;;;;;-1.80;99.90;;;;;;4374091;32;19983;-68
2021/12/19 07:15:01;;;;;;;;;;;-1.90;99.90;;;;;;4374059;32;19970;-68
2021/12/19 07:17:27;;;;;;;;;;;-1.70;99.90;;;;;;4361753;32;19978;-68
2021/12/19 07:19:53;;;;;;;;;;;-1.70;99.90;;;;;;4365936;32;19970;-68
2021/12/19 07:22:20;;;;;;;;;;;-1.90;99.90;;;;;;4376571;32;19997;-67
2021/12/19 07:24:46;;;;;;;;;;;-1.80;99.90;;;;;;4374106;32;20111;-67
2021/12/19 07:27:13;;;;;;;;;;;-1.80;99.90;;;;;;4361451;32;19982;-68
2021/12/19 07:29:39;;;;;;;;;;;-1.90;99.90;;;;;;4361476;32;20440;-68
2021/12/19 07:32:06;;;;;;;;;;;-1.90;99.90;;;;;;4362610;32;19985;-66
2021/12/19 07:34:35;;;;;;;;;;;-1.90;99.90;;;;;;4361797;32;20058;-67
2021/12/19 07:37:01;;;;;;;;;;;-1.80;99.90;;;;;;4361245;32;19989;-67
2021/12/19 07:39:40;;;;;;;;;;;-1.90;99.90;;;;;;4361284;32;19985;-67
2021/12/19 07:42:10;;;;;;;;;;;-2.10;99.90;;;;;;4362381;32;20046;-68
2021/12/19 07:44:37;;;;;;;;;;;-2.10;99.90;;;;;;4374232;32;19970;-67
2021/12/19 07:47:06;;;;;;;;;;;-2.00;99.90;;;;;;4361266;32;20516;-67
2021/12/19 07:49:32;;;;;;;;;;;-1.90;99.90;;;;;;4362999;32;19988;-68
2021/12/19 07:51:59;;;;;;;;;;;-1.90;99.90;;;;;;4361922;32;19985;-67
2021/12/19 07:54:25;;;;;;;;;;;-1.80;99.90;;;;;;4373305;32;20001;-67
2021/12/19 07:56:53;;;;;;;;;;;-1.90;99.90;;;;;;4362644;32;19985;-68
2021/12/19 07:59:20;;;;;;;;;;;-1.90;99.90;;;;;;4361130;32;20416;-67
2021/12/19 08:01:48;;;;;;;;;;;-1.70;99.90;;;;;;4362552;32;19979;-68
2021/12/19 08:04:15;;;;;;;;;;;-1.70;99.90;;;;;;4380926;32;19970;-68
2021/12/19 08:06:41;;;;;;;;;;;-1.80;99.90;;;;;;4376423;32;20403;-67
2021/12/19 08:09:11;;;;;;;;;;;-1.70;99.90;;;;;;4375091;32;20086;-67
2021/12/19 08:11:41;;;;;;;;;;;-1.70;99.90;;;;;;4375919;32;19973;-69
2021/12/19 08:14:12;;;;;;;;;;;-1.70;99.90;;;;;;4388173;32;19993;-67
2021/12/19 08:16:39;;;;;;;;;;;-1.60;99.90;;;;;;4388413;32;19977;-66
2021/12/19 08:19:06;;;;;;;;;;;-1.50;99.90;;;;;;4375445;32;20416;-67
2021/12/19 08:21:32;;;;;;;;;;;-1.50;99.90;;;;;;4377115;32;19966;-67
2021/12/19 08:24:01;;;;;;;;;;;-1.70;99.90;;;;;;4388564;32;19990;-67
2021/12/19 08:26:29;;;;;;;;;;;-1.70;99.90;;;;;;4375417;32;19978;-67
2021/12/19 08:28:55;;;;;;;;;;;-1.50;99.90;;;;;;4375552;32;19985;-67
2021/12/19 08:31:21;;;;;;;;;;;-1.50;99.90;;;;;;4377186;32;20004;-68
2021/12/19 08:33:48;;;;;;;;;;;-1.60;99.90;;;;;;4363115;32;20421;-67
2021/12/19 08:36:14;;;;;;;;;;;-1.60;99.90;;;;;;4362847;32;19978;-66
2021/12/19 08:38:41;;;;;;;;;;;-1.50;99.90;;;;;;4378252;32;20070;-66
2021/12/19 08:41:07;;;;;;;;;;;-1.50;99.90;;;;;;4364776;32;20347;-68
2021/12/19 08:43:34;;;;;;;;;;;-1.60;99.90;;;;;;4388176;32;19977;-67
2021/12/19 08:46:00;;;;;;;;;;;-1.50;99.90;;;;;;4376932;32;20419;-66
2021/12/19 08:48:26;;;;;;;;;;;-1.40;99.90;;;;;;4363158;32;20425;-66
2021/12/19 08:50:53;;;;;;;;;;;-1.50;99.90;;;;;;4377092;32;19994;-67
2021/12/19 08:53:19;;;;;;;;;;;-1.50;99.90;;;;;;4376100;32;19986;-67
2021/12/19 08:55:45;;;;;;;;;;;-1.40;99.90;;;;;;4381681;32;20054;-67
2021/12/19 08:58:11;;;;;;;;;;;-1.50;99.90;;;;;;4376299;32;19989;-67
2021/12/19 09:00:38;;;;;;;;;;;-1.50;99.90;;;;;;4362695;32;20055;-68
2021/12/19 09:03:05;;;;;;;;;;;-1.60;99.90;;;;;;4377029;32;19997;-66
2021/12/19 09:05:32;;;;;;;;;;;-1.40;99.90;;;;;;4378204;32;19984;-67
2021/12/19 09:07:58;;;;;;;;;;;-1.50;99.90;;;;;;4377674;32;20468;-68
2021/12/19 09:10:25;;;;;;;;;;;-1.30;99.90;;;;;;4390689;32;20072;-68
2021/12/19 09:12:51;;;;;;;;;;;-1.50;99.90;;;;;;4391798;32;19992;-66
2021/12/19 09:15:18;;;;;;;;;;;-1.50;99.90;;;;;;4390210;32;19961;-68
2021/12/19 09:17:44;;;;;;;;;;;-1.50;99.90;;;;;;4391672;32;19997;-68
2021/12/19 09:20:11;;;;;;;;;;;-1.40;99.90;;;;;;4378552;32;19981;-68
2021/12/19 09:22:39;;;;;;;;;;;-1.40;99.90;;;;;;4380940;32;20005;-67
2021/12/19 09:25:06;;;;;;;;;;;-1.40;99.90;;;;;;4368156;32;20029;-67
2021/12/19 09:27:32;;;;;;;;;;;-1.40;99.90;;;;;;4368403;32;19993;-68
2021/12/19 09:29:58;;;;;;;;;;;-1.40;99.90;;;;;;4380551;32;19985;-67
2021/12/19 09:32:24;;;;;;;;;;;-1.40;99.90;;;;;;4393202;32;19986;-68
2021/12/19 09:34:51;;;;;;;;;;;-1.40;99.90;;;;;;4380344;32;20396;-67
2021/12/19 09:37:17;;;;;;;;;;;-1.40;99.90;;;;;;4368007;32;20392;-68
2021/12/19 09:39:43;;;;;;;;;;;-1.50;99.90;;;;;;4380550;32;20060;-67
2021/12/19 09:42:10;;;;;;;;;;;-1.60;99.90;;;;;;4380203;32;19978;-66
2021/12/19 09:44:38;;;;;;;;;;;-1.60;99.90;;;;;;4367757;32;19966;-68
2021/12/19 09:47:07;;;;;;;;;;;-1.60;99.90;;;;;;4380844;32;20062;-66
2021/12/19 09:49:34;;;;;;;;;;;-1.40;99.90;;;;;;4393127;32;19985;-66
2021/12/19 09:54:41;;;;;;;;;;;-1.30;99.90;;;;;;3811491;37;19951;-68
2021/12/19 09:57:07;;;;;;;;;;;-1.30;99.90;;;;;;4388015;32;19985;-66
2021/12/19 09:59:34;;;;;;;;;;;-1.50;99.90;;;;;;4388237;32;19970;-66
2021/12/19 10:02:01;;;;;;;;;;;-1.50;99.90;;;;;;4389789;32;20426;-68
2021/12/19 10:04:46;;;;;;;;;;;-1.50;99.90;;;;;;4388802;32;20363;-67
2021/12/19 10:07:18;;;;;;;;;;;-1.30;99.90;;;;;;4390548;32;19966;-69
2021/12/19 10:09:59;;;;;;;;;;;-1.30;99.90;;;;;;4388143;32;20515;-68
2021/12/19 10:12:50;;;;;;;;;;;-1.30;99.90;;;;;;4388511;32;20412;-68
2021/12/19 10:15:20;;;;;;;;;;;-1.10;99.90;;;;;;4366362;32;20369;-67
2021/12/19 10:17:47;;;;;;;;;;;-1.20;99.90;;;;;;4372970;32;20372;-67
2021/12/19 10:20:16;;;;;;;;;;;-1.10;99.90;;;;;;4379720;32;20072;-69
2021/12/19 10:22:44;;;;;;;;;;;-1.10;99.90;;;;;;4361153;32;19990;-67
2021/12/19 10:25:11;;;;;;;;;;;-1.10;99.90;;;;;;4373252;32;19975;-68
2021/12/19 10:27:42;;;;;;;;;;;-1.30;99.90;;;;;;4373319;32;20389;-66
2021/12/19 10:30:09;;;;;;;;;;;-1.50;99.90;;;;;;4381317;32;20014;-68
2021/12/19 10:32:36;;;;;;;;;;;-1.40;99.90;;;;;;4373245;32;20052;-68
2021/12/19 10:35:17;;;;;;;;;;;-1.30;99.90;;;;;;4374302;32;19983;-66
2021/12/19 10:37:43;;;;;;;;;;;-1.40;99.90;;;;;;4360545;32;20132;-68
2021/12/19 10:40:10;;;;;;;;;;;-1.40;99.90;;;;;;4374229;32;20408;-68
2021/12/19 10:42:56;;;;;;;;;;;-1.40;99.90;;;;;;4373025;32;19974;-66
2021/12/19 10:45:35;;;;;;;;;;;-1.50;99.90;;;;;;4360868;32;20467;-68
2021/12/19 10:48:11;;;;;;;;;;;-1.40;99.90;;;;;;4374399;32;19994;-67
2021/12/19 10:50:52;;;;;;;;;;;-1.40;99.90;;;;;;3834491;37;20313;-67
2021/12/19 10:53:23;;;;;;;;;;;-1.50;99.90;;;;;;4378952;32;19973;-67
2021/12/19 10:55:50;;;;;;;;;;;-1.50;99.90;;;;;;4404946;32;19981;-68
2021/12/19 10:58:22;;;;;;;;;;;-1.50;99.90;;;;;;4365898;32;20024;-66
2021/12/19 11:01:14;;;;;;;;;;;-1.50;99.90;;;;;;4378376;32;20070;-67
2021/12/19 11:03:49;;;;;;;;;;;-1.60;99.90;;;;;;4378543;32;19987;-67
2021/12/19 11:06:16;;;;;;;;;;;-1.50;99.90;;;;;;4390560;32;20061;-71
2021/12/19 11:08:43;;;;;;;;;;;-1.50;99.90;;;;;;4404904;32;19985;-67
2021/12/19 11:11:10;;;;;;;;;;;-1.50;99.90;;;;;;4378014;32;19974;-68
2021/12/19 11:13:38;;;;;;;;;;;-1.70;99.90;;;;;;4391173;32;19973;-68
2021/12/19 11:16:04;;;;;;;;;;;-1.60;99.90;;;;;;4376108;32;19974;-68
2021/12/19 11:18:31;;;;;;;;;;;-1.70;99.90;;;;;;4375676;32;20477;-68
2021/12/19 11:20:58;;;;;;;;;;;-1.70;99.90;;;;;;4389416;32;19994;-67
2021/12/19 11:23:26;;;;;;;;;;;-1.90;99.90;;;;;;4362958;32;19978;-68
2021/12/19 11:25:54;;;;;;;;;;;-2.00;99.90;;;;;;4375900;32;19982;-67
2021/12/19 11:28:21;;;;;;;;;;;-2.00;99.90;;;;;;4389467;32;19986;-67
2021/12/19 11:30:47;;;;;;;;;;;-2.20;99.90;;;;;;4362566;32;20461;-67
2021/12/19 11:33:13;;;;;;;;;;;-2.10;99.90;;;;;;4375345;32;20005;-67
2021/12/19 11:35:45;;;;;;;;;;;-2.10;99.90;;;;;;4376020;32;20356;-67
2021/12/19 11:38:12;;;;;;;;;;;-2.10;99.90;;;;;;4376305;32;20066;-67
2021/12/19 11:40:38;;;;;;;;;;;-2.10;99.90;;;;;;4350578;32;19984;-67
2021/12/19 11:43:10;;;;;;;;;;;-2.10;99.90;;;;;;4389118;32;19981;-67
2021/12/19 11:48:30;;;;;;;;;;;-2.20;99.90;;;;;;4375775;32;20070;-67
2021/12/19 11:51:05;;;;;;;;;;;-2.10;99.90;;;;;;4376347;32;19974;-67
2021/12/19 11:53:33;;;;;;;;;;;-2.10;99.90;;;;;;4374960;32;20475;-67
2021/12/19 11:56:11;;;;;;;;;;;-2.20;99.90;;;;;;4362535;32;20428;-68
2021/12/19 11:58:59;;;;;;;;;;;-2.20;99.90;;;;;;4389310;32;20419;-68
2021/12/19 12:01:27;;;;;;;;;;;-2.20;99.90;;;;;;4388893;32;20051;-67
2021/12/19 12:03:57;;;;;;;;;;;-2.20;99.90;;;;;;4348697;32;19985;-67
2021/12/19 12:06:26;;;;;;;;;;;-2.10;99.90;;;;;;4354598;32;20384;-67
2021/12/19 12:09:15;;;;;;;;;;;-2.20;99.90;;;;;;4364583;32;20051;-67
2021/12/19 12:12:07;;;;;;;;;;;-2.20;99.90;;;;;;4365328;32;19990;-68
2021/12/19 12:14:36;;;;;;;;;;;-2.20;99.90;;;;;;4354842;32;20022;-66
2021/12/19 12:17:11;;;;;;;;;;;-2.20;99.90;;;;;;4378734;32;19982;-67
2021/12/19 12:19:45;;;;;;;;;;;-2.20;99.90;;;;;;4378886;32;20047;-66
2021/12/19 12:25:02;;;;;;;;;;;-2.20;99.90;;;;;;4378563;32;20075;-67
2021/12/19 12:27:36;;;;;;;;;;;-2.10;99.90;;;;;;4364885;32;19977;-67
2021/12/19 12:30:04;;;;;;;;;;;-2.20;99.90;;;;;;4365370;32;20074;-66
2021/12/19 12:32:31;;;;;;;;;;;-2.20;99.90;;;;;;4379195;32;20073;-67
2021/12/19 12:34:57;;;;;;;;;;;-2.20;99.90;;;;;;4378537;32;19977;-67
2021/12/19 12:37:24;;;;;;;;;;;-2.20;99.90;;;;;;4364590;32;19969;-67
2021/12/19 12:40:43;;;;;;;;;;;-2.10;99.90;;;;;;4364476;32;20051;-67
2021/12/19 12:43:11;;;;;;;;;;;-2.20;99.90;;;;;;4363708;32;20070;-68
2021/12/19 12:46:07;;;;;;;;;;;-2.20;99.90;;;;;;4353025;32;20473;-67
2021/12/19 12:48:35;;;;;;;;;;;-2.20;99.90;;;;;;4348566;32;19974;-67
2021/12/19 12:51:27;;;;;;;;;;;-2.20;99.90;;;;;;4365246;32;20475;-68
2021/12/19 12:53:56;;;;;;;;;;;-2.20;99.90;;;;;;4357950;32;19970;-67
2021/12/19 12:56:30;;;;;;;;;;;-2.20;99.90;;;;;;4364175;32;19972;-68
2021/12/19 12:58:56;;;;;;;;;;;-2.20;99.90;;;;;;4352667;32;20001;-68
2021/12/19 13:01:29;;;;;;;;;;;-2.30;99.90;;;;;;4364279;32;20054;-67
2021/12/19 13:04:04;;;;;;;;;;;-2.20;99.90;;;;;;4364159;32;20001;-67
2021/12/19 13:06:43;;;;;;;;;;;-2.30;99.90;;;;;;4351643;32;19970;-68
2021/12/19 13:09:25;;;;;;;;;;;-2.30;99.90;;;;;;4363996;32;19965;-67
2021/12/19 13:12:04;;;;;;;;;;;-2.30;99.90;;;;;;4364245;32;20052;-68
2021/12/19 13:14:32;;;;;;;;;;;-2.30;99.90;;;;;;4363880;32;19970;-68
2021/12/19 13:17:07;;;;;;;;;;;-2.40;99.90;;;;;;4377579;32;20006;-68
2021/12/19 13:19:36;;;;;;;;;;;-2.40;99.90;;;;;;4363827;32;19962;-66
2021/12/19 13:22:04;;;;;;;;;;;-2.40;99.90;;;;;;4363980;32;19989;-69
2021/12/19 13:24:32;;;;;;;;;;;-2.50;99.90;;;;;;4377489;32;20481;-67
2021/12/19 13:27:08;;;;;;;;;;;-2.50;99.90;;;;;;4363683;32;19970;-67
2021/12/19 13:29:35;;;;;;;;;;;-2.50;99.90;;;;;;4363727;32;20059;-66
2021/12/19 13:32:22;;;;;;;;;;;-2.50;99.90;;;;;;4363879;32;19970;-69
2021/12/19 13:34:49;;;;;;;;;;;-2.50;99.90;;;;;;4363698;32;19974;-68
2021/12/19 13:37:15;;;;;;;;;;;-2.50;99.90;;;;;;4365627;32;20013;-70
2021/12/19 13:39:43;;;;;;;;;;;-2.50;99.90;;;;;;4360642;32;20020;-68
2021/12/19 13:42:11;;;;;;;;;;;-2.50;99.90;;;;;;4370359;32;20042;-68
2021/12/19 13:44:37;;;;;;;;;;;-2.40;99.90;;;;;;4352411;32;19980;-68
2021/12/19 13:47:21;;;;;;;;;;;-2.40;99.90;;;;;;4377760;32;19989;-67
2021/12/19 13:49:48;;;;;;;;;;;-2.50;99.90;;;;;;4362955;32;20392;-68
2021/12/19 13:52:14;;;;;;;;;;;-2.50;99.90;;;;;;4351103;32;20001;-68
2021/12/19 13:54:40;;;;;;;;;;;-2.40;99.90;;;;;;4363374;32;20046;-68
2021/12/19 13:57:18;;;;;;;;;;;-2.40;99.90;;;;;;4377065;32;19993;-66
2021/12/19 13:59:44;;;;;;;;;;;-2.50;99.90;;;;;;4363448;32;19989;-67
2021/12/19 14:02:11;;;;;;;;;;;-2.40;99.90;;;;;;4363696;32;20345;-67
2021/12/19 14:04:38;;;;;;;;;;;-2.40;99.90;;;;;;4362985;32;20051;-68
2021/12/19 14:07:10;;;;;;;;;;;-2.40;99.90;;;;;;4363250;32;20435;-67
2021/12/19 14:09:42;;;;;;;;;;;-2.40;99.90;;;;;;4350999;32;19977;-67
2021/12/19 14:12:23;;;;;;;;;;;-2.30;99.90;;;;;;4350942;32;19981;-67
2021/12/19 14:14:50;;;;;;;;;;;-2.30;99.90;;;;;;4364727;32;19982;-68
2021/12/19 14:17:16;;;;;;;;;;;-2.40;99.90;;;;;;4363096;32;19998;-68
2021/12/19 14:19:51;;;;;;;;;;;-2.30;99.90;;;;;;4363095;32;19966;-67
2021/12/19 14:22:19;;;;;;;;;;;-2.30;99.90;;;;;;4363234;32;19978;-67
2021/12/19 14:24:56;;;;;;;;;;;-2.40;99.90;;;;;;4350456;32;20084;-66
2021/12/19 14:27:25;;;;;;;;;;;-2.40;99.90;;;;;;4338317;32;19997;-67
2021/12/19 14:29:57;;;;;;;;;;;-2.30;99.90;;;;;;4376955;32;19986;-67
2021/12/19 14:32:34;;;;;;;;;;;-2.30;99.90;;;;;;4337946;32;20367;-67
2021/12/19 14:35:06;;;;;;;;;;;-2.40;99.90;;;;;;4376448;32;20464;-67
2021/12/19 14:37:33;;;;;;;;;;;-2.30;99.90;;;;;;4362744;32;19986;-68
2021/12/19 14:40:11;;;;;;;;;;;-2.40;99.90;;;;;;4363025;32;19985;-66
2021/12/19 14:42:40;;;;;;;;;;;-2.30;99.90;;;;;;4376599;32;19978;-66
2021/12/19 14:45:10;;;;;;;;;;;-2.30;99.90;;;;;;4338231;32;20013;-67
2021/12/19 14:47:49;;;;;;;;;;;-2.30;99.90;;;;;;4362807;32;19978;-68
2021/12/19 14:50:19;;;;;;;;;;;-2.30;99.90;;;;;;4349995;32;20067;-68
2021/12/19 14:53:06;;;;;;;;;;;-2.30;99.90;;;;;;4350354;32;20008;-68
2021/12/19 14:55:43;;;;;;;;;;;-2.30;99.90;;;;;;4362831;32;20050;-67
2021/12/19 14:58:09;;;;;;;;;;;-2.30;99.90;;;;;;4351043;32;19970;-68
2021/12/19 15:00:38;;;;;;;;;;;-2.30;99.90;;;;;;4363339;32;20444;-68
2021/12/19 15:03:05;;;;;;;;;;;-2.40;99.90;;;;;;4338768;32;19974;-66
2021/12/19 15:05:32;;;;;;;;;;;-2.30;99.90;;;;;;4350321;32;19982;-68
2021/12/19 15:08:04;;;;;;;;;;;-2.30;99.90;;;;;;4363006;32;20027;-68
2021/12/19 15:10:31;;;;;;;;;;;-2.30;99.90;;;;;;4350710;32;19978;-68
2021/12/19 15:12:59;;;;;;;;;;;-2.30;99.90;;;;;;4367190;32;20050;-70
2021/12/19 15:15:25;;;;;;;;;;;-2.30;99.90;;;;;;4378020;32;19989;-68
2021/12/19 15:17:52;;;;;;;;;;;-2.30;99.90;;;;;;4363065;32;19981;-67
2021/12/19 15:20:19;;;;;;;;;;;-2.30;99.90;;;;;;4350238;32;19981;-66
2021/12/19 15:22:45;;;;;;;;;;;-2.30;99.90;;;;;;4341225;32;19978;-67
2021/12/19 15:25:12;;;;;;;;;;;-2.30;99.90;;;;;;4377291;32;19997;-68
2021/12/19 15:27:42;;;;;;;;;;;-2.30;99.90;;;;;;4350056;32;19982;-66
2021/12/19 15:30:12;;;;;;;;;;;-2.40;99.90;;;;;;4362043;32;20356;-68
2021/12/19 15:32:39;;;;;;;;;;;-2.40;99.90;;;;;;4376315;32;20395;-68
2021/12/19 15:35:07;;;;;;;;;;;-2.40;99.90;;;;;;4337778;32;20073;-67
2021/12/19 15:37:34;;;;;;;;;;;-2.40;99.90;;;;;;4352778;32;20460;-68
2021/12/19 15:42:40;;;;;;;;;;;-2.40;99.90;;;;;;3857577;37;19946;-68
2021/12/19 15:45:07;;;;;;;;;;;-2.40;99.90;;;;;;4394098;32;19977;-67
2021/12/19 15:47:34;;;;;;;;;;;-2.40;99.90;;;;;;4393211;32;19989;-66